Time;durP1;ratioP1;P1;durP2;ratioP2;P2;SDS_P1;SDS_P2;PMS_P1;PMS_P2;Temp;Humidity;BMP_temperature;BMP_pressure;BME280_temperature;BME280_humidity;BME280_pressure;Samples;Min_cycle;Max_cycle;Signal;HPM_P1;HPM_P2
2023/07/20 00:00:53;;;;;;;;;2.33;2.33;;;;;21.01;50.32;101431.56;5022026;28;46083;-47
2023/07/20 00:03:22;;;;;;;;;3.00;3.00;;;;;21.01;50.56;101428.03;5021965;28;45419;-45
2023/07/20 00:05:48;;;;;;;;;4.00;2.00;;;;;20.98;50.64;101439.97;5021940;28;45482;-49
2023/07/20 00:08:13;;;;;;;;;2.67;2.67;;;;;20.97;50.74;101428.25;5021863;28;45384;-47
2023/07/20 00:10:40;;;;;;;;;3.00;3.00;;;;;20.92;51.35;101435.91;5021633;28;45907;-47
2023/07/20 00:13:05;;;;;;;;;3.00;3.00;;;;;20.92;50.92;101437.75;5021920;28;45406;-46
2023/07/20 00:15:31;;;;;;;;;4.00;4.00;;;;;20.90;51.27;101437.03;5021531;28;53702;-47
2023/07/20 00:17:57;;;;;;;;;5.00;5.00;;;;;20.88;51.32;101434.44;5021787;28;45408;-47
2023/07/20 00:20:24;;;;;;;;;2.67;2.00;;;;;20.82;51.57;101433.13;5020818;28;72421;-46
2023/07/20 00:22:51;;;;;;;;;1.67;0.33;;;;;20.79;51.51;101435.22;5021804;28;45321;-46
2023/07/20 00:25:18;;;;;;;;;5.00;5.00;;;;;20.77;51.82;101438.06;5021667;28;45426;-48
2023/07/20 00:27:43;;;;;;;;;5.00;4.33;;;;;20.78;52.18;101441.59;5021635;28;45290;-45
2023/07/20 00:30:09;;;;;;;;;3.00;3.00;;;;;20.75;51.80;101437.31;5021076;28;57308;-47
2023/07/20 00:32:34;;;;;;;;;5.00;4.00;;;;;20.72;52.57;101437.59;5021594;28;45530;-48
2023/07/20 00:34:59;;;;;;;;;5.00;3.00;;;;;20.66;52.85;101436.22;5020579;28;68188;-46
2023/07/20 00:37:25;;;;;;;;;3.00;3.00;;;;;20.55;52.32;101430.00;5020908;28;65778;-46
2023/07/20 00:39:51;;;;;;;;;6.67;5.00;;;;;20.44;54.03;101439.84;5020387;28;74383;-47
2023/07/20 00:42:16;;;;;;;;;6.00;4.33;;;;;20.40;53.27;101445.63;5021295;28;45487;-47
2023/07/20 00:44:41;;;;;;;;;3.67;3.67;;;;;20.40;52.86;101442.91;5021330;28;45443;-50
2023/07/20 00:47:07;;;;;;;;;4.00;4.00;;;;;20.40;53.33;101441.09;5020605;28;69271;-48
2023/07/20 00:49:32;;;;;;;;;4.00;4.00;;;;;20.40;52.99;101443.78;5018878;28;74606;-46
2023/07/20 00:52:00;;;;;;;;;3.33;2.33;;;;;20.42;53.55;101438.25;5020217;28;72076;-46
2023/07/20 00:54:25;;;;;;;;;4.00;4.00;;;;;20.44;53.14;101437.16;5018162;28;45455;-48
2023/07/20 00:56:53;;;;;;;;;3.00;3.00;;;;;20.44;53.30;101434.44;5012245;28;45210;-47
2023/07/20 00:59:18;;;;;;;;;3.33;3.33;;;;;20.44;53.31;101430.88;5021100;28;45390;-49
2023/07/20 01:01:44;;;;;;;;;5.33;4.67;;;;;20.42;53.68;101428.28;5020234;28;71205;-46
2023/07/20 01:04:10;;;;;;;;;3.00;3.00;;;;;20.43;53.77;101431.88;5021104;28;45311;-47
2023/07/20 01:06:58;;;;;;;;;3.00;3.00;;;;;20.40;53.25;101438.38;5020008;28;68837;-46
2023/07/20 01:09:28;;;;;;;;;6.33;4.00;;;;;20.38;54.20;101428.69;5007727;28;45437;-45
2023/07/20 01:11:54;;;;;;;;;3.33;3.33;;;;;20.36;54.21;101425.25;5019481;28;45494;-46
2023/07/20 01:14:20;;;;;;;;;5.33;4.33;;;;;20.33;53.38;101429.91;5019776;28;45317;-46
2023/07/20 01:16:45;;;;;;;;;4.67;4.00;;;;;20.31;53.62;101433.69;5020399;28;57569;-49
2023/07/20 01:19:12;;;;;;;;;3.00;3.00;;;;;20.29;54.35;101427.59;5020727;28;46977;-48
2023/07/20 01:21:43;;;;;;;;;3.00;3.00;;;;;20.28;54.40;101425.88;5020756;28;45440;-47
2023/07/20 01:24:27;;;;;;;;;4.67;4.67;;;;;20.25;54.37;101421.56;5020984;28;45269;-46
2023/07/20 01:27:01;;;;;;;;;4.00;4.00;;;;;20.15;54.78;101420.59;5020489;28;45320;-47
2023/07/20 01:29:51;;;;;;;;;3.33;3.33;;;;;20.08;55.12;101422.09;5020695;28;46040;-45
2023/07/20 01:32:17;;;;;;;;;6.00;4.33;;;;;19.99;55.46;101419.13;5019314;28;45406;-48
2023/07/20 01:34:44;;;;;;;;;4.00;3.00;;;;;19.97;55.18;101413.00;5020393;28;45337;-45
2023/07/20 01:37:10;;;;;;;;;4.00;2.67;;;;;19.98;55.58;101409.31;5018686;28;68465;-50
2023/07/20 01:39:36;;;;;;;;;4.67;3.00;;;;;19.98;55.53;101416.56;5019169;28;46243;-48
2023/07/20 01:42:01;;;;;;;;;5.67;3.00;;;;;19.99;55.70;101415.59;5019326;28;71723;-50
2023/07/20 01:44:27;;;;;;;;;6.67;4.00;;;;;19.99;55.30;101415.59;5018538;28;62020;-47
2023/07/20 01:46:53;;;;;;;;;5.00;3.33;;;;;19.99;55.86;101415.59;5020628;28;45396;-49
2023/07/20 01:49:18;;;;;;;;;4.67;4.67;;;;;19.97;56.11;101414.84;5019444;28;68544;-49
2023/07/20 01:51:43;;;;;;;;;8.67;5.33;;;;;19.91;55.78;101409.94;5019363;28;72367;-47
2023/07/20 01:54:08;;;;;;;;;4.00;4.00;;;;;19.82;56.09;101403.44;5019932;28;57420;-50
2023/07/20 01:56:34;;;;;;;;;5.67;4.33;;;;;19.74;56.44;101400.47;5018520;28;68726;-48
2023/07/20 01:58:59;;;;;;;;;4.00;4.00;;;;;19.72;56.86;101399.72;5020502;28;46113;-50
2023/07/20 02:01:25;;;;;;;;;2.67;2.67;;;;;19.72;56.24;101399.72;5020580;28;71624;-48
2023/07/20 02:03:50;;;;;;;;;5.67;4.00;;;;;19.71;56.92;101398.88;5020669;28;45149;-48
2023/07/20 02:06:15;;;;;;;;;4.00;4.00;;;;;19.75;56.80;101402.16;5019519;28;64633;-46
2023/07/20 02:08:40;;;;;;;;;5.00;3.00;;;;;19.75;56.74;101396.78;5019045;28;65709;-45
2023/07/20 02:11:06;;;;;;;;;5.00;5.00;;;;;19.77;57.05;101401.06;5018918;28;71816;-47
2023/07/20 02:13:31;;;;;;;;;4.67;3.67;;;;;19.78;57.16;101402.78;5020241;28;45406;-49
2023/07/20 02:15:56;;;;;;;;;4.67;4.00;;;;;19.75;57.89;101402.16;5019231;28;69556;-46
2023/07/20 02:18:22;;;;;;;;;5.00;3.67;;;;;19.67;57.50;101400.94;5018715;28;73316;-46
2023/07/20 02:20:47;;;;;;;;;5.67;4.00;;;;;19.62;57.55;101396.88;5020044;28;45363;-45
2023/07/20 02:23:12;;;;;;;;;4.00;4.00;;;;;19.56;57.65;101397.38;5019996;28;45493;-45
2023/07/20 02:25:38;;;;;;;;;4.00;3.00;;;;;19.56;57.46;101397.38;5019858;28;45475;-47
2023/07/20 02:28:04;;;;;;;;;5.67;4.00;;;;;19.56;57.73;101400.09;5019612;28;46064;-48
2023/07/20 02:30:29;;;;;;;;;4.00;4.00;;;;;19.57;57.66;101391.00;5019792;28;45379;-45
2023/07/20 02:32:58;;;;;;;;;3.67;3.67;;;;;19.57;57.46;101393.69;5019881;28;45561;-48
2023/07/20 02:35:23;;;;;;;;;7.33;4.00;;;;;19.57;57.48;101397.25;5019907;28;45585;-48
2023/07/20 02:37:49;;;;;;;;;7.00;6.33;;;;;19.58;57.81;101395.41;5019489;28;45347;-46
2023/07/20 02:40:14;;;;;;;;;6.67;3.67;;;;;19.58;57.94;101395.41;5019611;28;45315;-46
2023/07/20 02:42:39;;;;;;;;;6.33;5.33;;;;;19.56;57.86;101400.94;5019830;28;45364;-46
2023/07/20 02:45:05;;;;;;;;;4.67;2.33;;;;;19.55;58.12;101401.06;5018840;28;69952;-48
2023/07/20 02:47:31;;;;;;;;;5.67;5.00;;;;;19.53;58.29;101406.59;5019552;28;46210;-46
2023/07/20 02:49:56;;;;;;;;;6.00;4.00;;;;;19.46;59.32;101408.91;5019452;28;45342;-47
2023/07/20 02:52:23;;;;;;;;;3.00;3.00;;;;;19.40;58.35;101408.50;5018484;28;45360;-46
2023/07/20 02:54:48;;;;;;;;;3.00;3.00;;;;;19.37;59.25;101409.59;5018061;28;45261;-47
2023/07/20 02:57:13;;;;;;;;;5.00;3.67;;;;;19.35;58.79;101411.56;5019191;28;45536;-45
2023/07/20 02:59:39;;;;;;;;;4.00;4.00;;;;;19.32;59.02;101398.31;5019546;28;45410;-49
2023/07/20 03:02:04;;;;;;;;;4.00;4.00;;;;;19.28;58.31;101399.53;5019679;28;45416;-45
2023/07/20 03:04:30;;;;;;;;;4.67;4.00;;;;;19.22;59.06;101408.97;5019437;28;45375;-47
2023/07/20 03:06:55;;;;;;;;;3.33;3.33;;;;;19.18;59.15;101402.09;5019114;28;45833;-46
2023/07/20 03:09:20;;;;;;;;;4.33;4.33;;;;;19.16;58.89;101399.50;5020031;28;73709;-47
2023/07/20 03:11:46;;;;;;;;;5.67;5.00;;;;;19.14;59.84;101396.06;5022702;28;45214;-47
2023/07/20 03:14:11;;;;;;;;;3.00;3.00;;;;;19.13;59.38;101399.72;5021290;28;53073;-45
2023/07/20 03:16:37;;;;;;;;;4.00;4.00;;;;;19.16;59.25;101406.72;5022581;28;46342;-47
2023/07/20 03:19:03;;;;;;;;;4.00;4.00;;;;;19.17;60.09;101405.75;5022466;28;51531;-46
2023/07/20 03:21:29;;;;;;;;;3.67;3.67;;;;;19.16;59.39;101396.81;5022741;28;45289;-47
2023/07/20 03:23:54;;;;;;;;;6.67;4.33;;;;;19.14;60.01;101403.31;5021420;28;45283;-46
2023/07/20 03:26:19;;;;;;;;;3.33;3.33;;;;;19.09;60.08;101400.94;5022224;28;45309;-48
2023/07/20 03:28:45;;;;;;;;;7.00;4.33;;;;;19.05;60.15;101399.47;5021809;28;65745;-45
2023/07/20 03:31:10;;;;;;;;;5.33;3.67;;;;;19.03;60.81;101404.09;5021671;28;64831;-45
2023/07/20 03:33:36;;;;;;;;;5.67;5.67;;;;;18.96;60.21;101400.19;5021779;28;64236;-45
2023/07/20 03:36:01;;;;;;;;;5.00;5.00;;;;;18.94;60.24;101396.72;5022446;28;46134;-45
2023/07/20 03:38:27;;;;;;;;;8.00;5.00;;;;;18.87;60.56;101398.16;5022316;28;45324;-46
2023/07/20 03:40:57;;;;;;;;;4.00;4.00;;;;;18.82;60.47;101398.50;5022274;28;45349;-45
2023/07/20 03:43:23;;;;;;;;;4.67;4.67;;;;;18.76;61.48;101405.22;5021309;28;45472;-49
2023/07/20 03:45:49;;;;;;;;;4.00;4.00;;;;;18.71;61.36;101393.03;5022115;28;45300;-48
2023/07/20 03:48:20;;;;;;;;;3.33;3.33;;;;;18.64;62.16;101401.59;5021017;28;45363;-48
2023/07/20 03:50:46;;;;;;;;;4.00;4.00;;;;;18.61;61.26;101406.34;5022213;28;45348;-46
2023/07/20 03:53:12;;;;;;;;;3.67;3.67;;;;;18.60;62.04;101402.78;5022449;28;45368;-47
2023/07/20 03:55:37;;;;;;;;;4.67;4.00;;;;;18.61;61.53;101406.34;5011546;28;46540;-47
2023/07/20 03:58:03;;;;;;;;;4.67;4.67;;;;;18.58;61.78;101404.75;5021732;28;56636;-46
2023/07/20 04:00:28;;;;;;;;;4.00;4.00;;;;;18.60;63.55;101400.09;5022079;28;45349;-46
2023/07/20 04:02:54;;;;;;;;;4.67;4.00;;;;;18.59;62.77;101394.81;5022367;28;45334;-46
2023/07/20 04:05:19;;;;;;;;;3.33;3.00;;;;;18.59;63.01;101402.91;5022762;28;46878;-45
2023/07/20 04:07:44;;;;;;;;;6.00;4.67;;;;;18.54;63.46;101405.09;5022332;28;45665;-46
2023/07/20 04:10:10;;;;;;;;;5.00;5.00;;;;;18.49;62.61;101402.75;5019952;28;58495;-47
2023/07/20 04:12:35;;;;;;;;;5.00;5.00;;;;;18.47;62.80;101400.16;5022025;28;45326;-49
2023/07/20 04:15:01;;;;;;;;;6.67;5.00;;;;;18.45;63.75;101398.56;5020721;28;69550;-45
2023/07/20 04:17:26;;;;;;;;;6.67;4.33;;;;;18.39;64.18;101396.31;5020565;28;45341;-45
2023/07/20 04:19:51;;;;;;;;;4.00;4.00;;;;;18.37;63.05;101393.75;5020236;28;67284;-46
2023/07/20 04:22:17;;;;;;;;;6.00;5.00;;;;;18.41;63.37;101397.03;5021015;28;64575;-45
2023/07/20 04:24:42;;;;;;;;;4.00;3.00;;;;;18.47;63.18;101389.41;5021425;28;46913;-46
2023/07/20 04:27:08;;;;;;;;;4.00;4.00;;;;;18.55;63.37;101390.66;5020763;28;67184;-45
2023/07/20 04:29:33;;;;;;;;;5.67;4.00;;;;;18.61;62.62;101387.50;5021678;28;45509;-49
2023/07/20 04:31:59;;;;;;;;;6.33;5.00;;;;;18.64;62.52;101388.13;5021652;28;45461;-49
2023/07/20 04:34:24;;;;;;;;;4.33;4.00;;;;;18.66;62.86;101380.78;5020659;28;65670;-45
2023/07/20 04:36:49;;;;;;;;;7.33;5.00;;;;;18.71;62.95;101385.84;5021694;28;45434;-47
2023/07/20 04:39:15;;;;;;;;;6.67;4.00;;;;;18.76;62.87;101396.25;5021575;28;45710;-49
2023/07/20 04:41:40;;;;;;;;;4.00;4.00;;;;;18.78;62.96;101388.91;5020340;28;69878;-45
2023/07/20 04:44:05;;;;;;;;;4.67;4.67;;;;;18.81;62.72;101386.88;5020703;28;63672;-45
2023/07/20 04:46:30;;;;;;;;;4.33;3.00;;;;;18.85;61.34;101388.34;5020644;28;71183;-45
2023/07/20 04:48:56;;;;;;;;;3.33;3.33;;;;;18.87;63.07;101388.22;5020935;28;55754;-44
2023/07/20 04:51:22;;;;;;;;;7.00;4.00;;;;;18.92;62.77;101387.91;5020386;28;70347;-49
2023/07/20 04:53:47;;;;;;;;;6.00;4.67;;;;;18.98;62.86;101390.13;5021204;28;45788;-46
2023/07/20 04:56:13;;;;;;;;;4.33;4.33;;;;;19.05;62.31;101387.84;5010151;28;60953;-44
2023/07/20 04:58:38;;;;;;;;;10.67;4.33;;;;;19.11;62.27;101390.03;5020183;28;45313;-49
2023/07/20 05:01:04;;;;;;;;;4.00;3.00;;;;;19.16;62.42;101390.56;5020538;28;63993;-46
2023/07/20 05:03:29;;;;;;;;;5.00;3.00;;;;;19.23;61.86;101399.03;5019988;28;71827;-47
2023/07/20 05:05:54;;;;;;;;;3.33;3.33;;;;;19.25;61.31;101405.16;5021133;28;45274;-47
2023/07/20 05:08:22;;;;;;;;;3.00;3.00;;;;;19.24;61.75;101398.94;5021243;28;45661;-49
2023/07/20 05:10:47;;;;;;;;;3.33;3.33;;;;;19.22;61.78;101400.88;5021095;28;45384;-48
2023/07/20 05:13:13;;;;;;;;;4.00;4.00;;;;;19.23;61.62;101399.03;5020853;28;46121;-47
2023/07/20 05:15:38;;;;;;;;;5.00;3.67;;;;;19.24;61.43;101395.34;5020938;28;45418;-48
2023/07/20 05:18:03;;;;;;;;;4.00;4.00;;;;;19.23;61.83;101399.91;5020939;28;45743;-49
2023/07/20 05:20:29;;;;;;;;;2.33;2.33;;;;;19.27;61.43;101397.84;5020980;28;46568;-47
2023/07/20 05:22:54;;;;;;;;;4.00;4.00;;;;;19.31;61.21;101397.47;5019828;28;74276;-46
2023/07/20 05:25:22;;;;;;;;;6.33;4.33;;;;;19.39;61.53;101407.66;5019538;28;71757;-48
2023/07/20 05:27:47;;;;;;;;;4.00;2.67;;;;;19.47;61.11;101412.44;5020892;28;45295;-47
2023/07/20 05:30:13;;;;;;;;;3.67;3.67;;;;;19.53;60.45;101417.38;5020862;28;45550;-46
2023/07/20 05:32:38;;;;;;;;;3.00;3.00;;;;;19.51;60.55;101420.16;5019629;28;45873;-48
2023/07/20 05:35:04;;;;;;;;;3.00;3.00;;;;;19.55;59.72;101418.09;5019934;28;67781;-46
2023/07/20 05:37:29;;;;;;;;;5.00;3.00;;;;;19.55;60.77;101422.63;5020953;28;45443;-45
2023/07/20 05:39:56;;;;;;;;;4.00;3.00;;;;;19.53;60.58;101421.88;5019621;28;67858;-48
2023/07/20 05:42:21;;;;;;;;;4.00;4.00;;;;;19.55;60.42;101415.41;5020605;28;45550;-48
2023/07/20 05:44:48;;;;;;;;;4.00;4.00;;;;;19.60;60.41;101415.03;5020481;28;45496;-50
2023/07/20 05:47:13;;;;;;;;;4.67;3.33;;;;;19.69;60.17;101419.72;5020594;28;45407;-48
2023/07/20 05:49:38;;;;;;;;;6.00;4.33;;;;;19.79;59.76;101419.81;5020289;28;45545;-45
2023/07/20 05:52:04;;;;;;;;;4.00;4.00;;;;;19.90;60.04;101417.16;5018320;28;72872;-50
2023/07/20 05:54:29;;;;;;;;;3.00;3.00;;;;;19.99;59.55;101418.28;5017822;28;45427;-46
2023/07/20 05:56:55;;;;;;;;;4.67;3.00;;;;;20.05;58.89;101408.81;5011815;28;67497;-47
2023/07/20 05:59:20;;;;;;;;;6.00;4.33;;;;;20.07;58.68;101401.47;5020066;28;45351;-47
2023/07/20 06:01:48;;;;;;;;;5.33;3.67;;;;;20.07;58.90;101404.16;5019133;28;46306;-46
2023/07/20 06:04:13;;;;;;;;;6.00;4.00;;;;;20.08;58.71;101406.75;5018825;28;45333;-46
2023/07/20 06:06:39;;;;;;;;;5.67;5.00;;;;;20.12;58.54;101405.50;5020259;28;45290;-47
2023/07/20 06:09:07;;;;;;;;;6.00;5.00;;;;;20.21;58.51;101392.22;5019600;28;59468;-47
2023/07/20 06:11:32;;;;;;;;;3.00;3.00;;;;;20.32;58.85;101403.00;5019734;28;46374;-46
2023/07/20 06:13:58;;;;;;;;;7.00;4.33;;;;;20.41;58.16;101398.72;5019431;28;56449;-45
2023/07/20 06:16:23;;;;;;;;;4.67;4.00;;;;;20.50;57.96;101404.19;5019228;28;67422;-45
2023/07/20 06:18:48;;;;;;;;;6.00;5.00;;;;;20.55;57.96;101400.28;5018909;28;68970;-46
2023/07/20 06:21:13;;;;;;;;;6.00;6.00;;;;;20.56;58.25;101397.44;5018904;28;74958;-45
2023/07/20 06:23:39;;;;;;;;;6.33;5.33;;;;;20.63;57.53;101404.03;5018702;28;70945;-45
2023/07/20 06:26:06;;;;;;;;;4.00;3.67;;;;;20.64;57.09;101397.66;5018471;28;45435;-46
2023/07/20 06:28:32;;;;;;;;;8.33;8.33;;;;;20.67;57.41;101399.25;5018623;28;45399;-47
2023/07/20 06:31:01;;;;;;;;;6.33;6.33;;;;;20.71;57.63;101395.31;5019699;28;45438;-46
2023/07/20 06:33:26;;;;;;;;;7.00;7.00;;;;;20.86;57.65;101408.53;5019112;28;45273;-45
2023/07/20 06:35:52;;;;;;;;;8.67;7.67;;;;;21.08;57.42;101391.34;5019340;28;53856;-46
2023/07/20 06:38:18;;;;;;;;;12.33;10.00;;;;;21.33;56.76;101390.13;5019625;28;45459;-47
2023/07/20 06:40:43;;;;;;;;;7.33;6.67;;;;;22.34;56.40;101403.81;5019435;28;46292;-46
2023/07/20 06:43:09;;;;;;;;;9.33;7.00;;;;;25.38;53.74;101394.53;5020136;28;67119;-47
2023/07/20 06:45:34;;;;;;;;;7.67;7.33;;;;;28.43;47.77;101389.25;5023421;28;45253;-45
2023/07/20 06:47:59;;;;;;;;;9.00;6.33;;;;;30.87;43.49;101386.06;5020770;28;69873;-45
2023/07/20 06:50:24;;;;;;;;;8.00;8.00;;;;;32.95;39.86;101390.75;5022672;28;50805;-46
2023/07/20 06:52:50;;;;;;;;;9.67;8.00;;;;;34.58;36.72;101396.44;5022261;28;65663;-46
2023/07/20 06:55:15;;;;;;;;;13.67;10.33;;;;;35.83;34.44;101395.75;5013343;28;62462;-45
2023/07/20 06:57:41;;;;;;;;;9.33;9.33;;;;;36.85;31.78;101405.28;5021826;28;45371;-45
2023/07/20 07:00:06;;;;;;;;;6.67;6.67;;;;;37.96;28.95;101404.53;5021924;28;71710;-46
2023/07/20 07:02:32;;;;;;;;;7.67;7.67;;;;;38.79;28.23;101400.59;5018915;28;45352;-46
2023/07/20 07:04:57;;;;;;;;;7.00;7.00;;;;;39.24;29.15;101401.59;5020635;28;45487;-47
2023/07/20 07:07:23;;;;;;;;;8.00;7.00;;;;;39.91;26.73;101397.81;5021220;28;68060;-46
2023/07/20 07:09:48;;;;;;;;;7.00;6.67;;;;;40.48;26.08;101398.44;5022453;28;52606;-46
2023/07/20 07:12:14;;;;;;;;;6.33;6.33;;;;;41.17;25.00;101402.41;5021008;28;68975;-47
2023/07/20 07:14:39;;;;;;;;;5.67;5.67;;;;;41.86;24.47;101392.22;5018470;28;46433;-47
2023/07/20 07:17:05;;;;;;;;;7.00;7.00;;;;;42.48;21.68;101389.59;5019646;28;68195;-49
2023/07/20 07:19:30;;;;;;;;;4.75;4.50;;;;;42.77;22.23;101395.47;5022097;28;46226;-50
2023/07/20 07:21:55;;;;;;;;;4.75;4.50;;;;;43.38;22.61;101390.94;5021645;28;68282;-46
2023/07/20 07:24:20;;;;;;;;;7.50;5.00;;;;;44.02;21.89;101387.63;5021575;28;65851;-46
2023/07/20 07:26:46;;;;;;;;;6.67;5.33;;;;;44.63;20.60;101389.19;5020535;28;45431;-50
2023/07/20 07:29:11;;;;;;;;;4.33;4.33;;;;;45.17;19.74;101389.28;5019834;28;69457;-50
2023/07/20 07:31:38;;;;;;;;;10.00;5.75;;;;;44.91;19.91;101395.94;5022183;28;45401;-48
2023/07/20 07:34:04;;;;;;;;;5.50;5.00;;;;;43.42;19.11;101389.25;5022429;28;45346;-48
2023/07/20 07:36:30;;;;;;;;;4.67;4.67;;;;;42.24;20.95;101392.03;5022134;28;45401;-48
2023/07/20 07:38:55;;;;;;;;;4.50;3.75;;;;;42.68;20.71;101397.16;5020899;28;45804;-45
2023/07/20 07:41:20;;;;;;;;;5.50;4.50;;;;;43.61;20.36;101397.03;5021315;28;69139;-45
2023/07/20 07:43:46;;;;;;;;;7.50;7.50;;;;;44.66;20.48;101398.97;5022509;28;45325;-45
2023/07/20 07:46:11;;;;;;;;;5.75;5.75;;;;;45.43;19.91;101393.44;5021562;28;66272;-47
2023/07/20 07:48:37;;;;;;;;;6.50;5.75;;;;;45.99;18.30;101401.50;5022006;28;47004;-49
2023/07/20 07:51:02;;;;;;;;;5.50;5.50;;;;;46.52;17.02;101397.59;5021089;28;73136;-49
2023/07/20 07:53:27;;;;;;;;;4.75;4.75;;;;;46.49;17.50;101401.88;5021626;28;63505;-49
2023/07/20 07:55:53;;;;;;;;;7.50;6.00;;;;;46.39;17.42;101390.78;5019590;28;45550;-47
2023/07/20 07:58:18;;;;;;;;;9.50;6.25;;;;;46.31;16.77;101388.69;5022074;28;46132;-47
2023/07/20 08:00:44;;;;;;;;;5.00;5.00;;;;;46.70;16.98;101385.53;5021338;28;63525;-49
2023/07/20 08:03:09;;;;;;;;;6.75;6.50;;;;;47.20;16.72;101389.69;5022090;28;45447;-48
2023/07/20 08:05:35;;;;;;;;;5.00;5.00;;;;;47.61;16.33;101380.41;5021771;28;45663;-48
2023/07/20 08:08:01;;;;;;;;;4.67;4.67;;;;;47.92;16.06;101391.03;5003467;28;63752;-47
2023/07/20 08:10:26;;;;;;;;;7.00;7.00;;;;;48.06;16.05;101382.53;5021855;28;45469;-50
2023/07/20 08:12:52;;;;;;;;;4.50;4.00;;;;;48.33;15.81;101392.06;5022192;28;45407;-50
2023/07/20 08:15:17;;;;;;;;;4.33;4.33;;;;;48.69;14.79;101383.53;5020839;28;45474;-48
2023/07/20 08:17:45;;;;;;;;;8.67;6.67;;;;;49.02;15.08;101379.59;5021595;28;46258;-49
2023/07/20 08:20:12;;;;;;;;;9.50;6.50;;;;;49.16;14.77;101393.59;5021599;28;45358;-48
2023/07/20 08:22:39;;;;;;;;;6.33;5.00;;;;;49.33;14.76;101384.38;5021842;28;45233;-48
2023/07/20 08:25:05;;;;;;;;;5.00;4.00;;;;;49.43;14.06;101383.25;5021574;28;45636;-46
2023/07/20 08:27:30;;;;;;;;;3.50;3.50;;;;;48.50;14.19;101377.25;5021491;28;46073;-49
2023/07/20 08:29:56;;;;;;;;;5.00;5.00;;;;;47.10;15.48;101378.66;5020678;28;70753;-46
2023/07/20 08:32:21;;;;;;;;;6.00;5.67;;;;;46.25;15.90;101379.47;5021591;28;45407;-47
2023/07/20 08:34:46;;;;;;;;;6.50;5.50;;;;;46.35;15.76;101370.06;5021242;28;47001;-47
2023/07/20 08:37:12;;;;;;;;;6.00;6.00;;;;;46.73;15.86;101368.03;5020537;28;72966;-50
2023/07/20 08:39:37;;;;;;;;;6.00;6.00;;;;;47.51;15.82;101366.56;5020461;28;63960;-49
2023/07/20 08:42:06;;;;;;;;;7.00;5.75;;;;;48.01;15.43;101362.94;5020511;28;68449;-46
2023/07/20 08:44:33;;;;;;;;;6.25;5.25;;;;;48.11;14.90;101351.41;5021394;28;45296;-50
2023/07/20 08:47:00;;;;;;;;;6.00;4.00;;;;;47.57;15.07;101364.47;5021317;28;47181;-45
2023/07/20 08:49:26;;;;;;;;;3.00;3.00;;;;;47.53;14.52;101358.63;5019997;28;45293;-47
2023/07/20 08:51:51;;;;;;;;;4.50;4.50;;;;;46.83;14.85;101349.28;5002713;28;61984;-48
2023/07/20 08:54:17;;;;;;;;;3.00;3.00;;;;;45.80;15.07;101350.91;5019876;28;45411;-47
2023/07/20 08:56:43;;;;;;;;;3.75;3.75;;;;;46.11;15.63;101351.31;5020967;28;46117;-46
2023/07/20 08:59:09;;;;;;;;;1.00;1.00;;;;;46.95;15.20;101357.22;5019946;28;45474;-47
2023/07/20 09:01:36;;;;;;;;;5.50;3.75;;;;;47.56;14.60;101355.19;5021205;28;45336;-50
2023/07/20 09:04:01;;;;;;;;;3.25;3.25;;;;;48.02;14.20;101359.78;5021246;28;45318;-47
2023/07/20 09:06:27;;;;;;;;;6.25;3.75;;;;;48.29;14.57;101354.38;5018991;28;61944;-50
2023/07/20 09:08:52;;;;;;;;;4.25;3.00;;;;;48.39;13.00;101350.50;5020743;28;50605;-48
2023/07/20 09:11:17;;;;;;;;;2.25;2.25;;;;;48.24;13.90;101352.53;5020830;28;45845;-48
2023/07/20 09:13:43;;;;;;;;;4.50;2.75;;;;;48.07;13.77;101349.56;5021025;28;45348;-48
2023/07/20 09:16:09;;;;;;;;;2.25;2.25;;;;;48.29;13.89;101345.94;5019876;28;75200;-50
2023/07/20 09:18:34;;;;;;;;;2.25;2.25;;;;;48.52;12.95;101347.56;5019436;28;45186;-51
2023/07/20 09:21:05;;;;;;;;;3.00;3.00;;;;;47.91;14.45;101347.09;5019605;28;45289;-49
2023/07/20 09:23:32;;;;;;;;;2.75;1.75;;;;;46.45;13.51;101344.59;5019647;28;45504;-46
2023/07/20 09:25:58;;;;;;;;;4.25;4.00;;;;;45.64;14.55;101350.28;5020445;28;45386;-47
2023/07/20 09:28:23;;;;;;;;;3.50;3.50;;;;;45.64;14.41;101345.50;5019188;28;45464;-47
2023/07/20 09:30:49;;;;;;;;;2.00;2.00;;;;;46.04;14.52;101339.63;5019988;28;64762;-51
2023/07/20 09:33:24;;;;;;;;;3.00;3.00;;;;;45.70;14.93;101335.00;5019665;28;67157;-49
2023/07/20 09:35:49;;;;;;;;;2.25;1.50;;;;;45.31;15.41;101342.53;5019400;28;47016;-46
2023/07/20 09:38:15;;;;;;;;;1.75;1.75;;;;;45.35;14.26;101343.59;5020528;28;45395;-50
2023/07/20 09:40:41;;;;;;;;;1.00;1.00;;;;;45.14;14.47;101342.16;5020438;28;45370;-48
2023/07/20 09:43:10;;;;;;;;;1.00;0.50;;;;;45.52;14.50;101340.31;5020607;28;45523;-48
2023/07/20 09:45:39;;;;;;;;;2.00;0.50;;;;;46.08;14.14;101332.25;5020399;28;46960;-50
2023/07/20 09:48:09;;;;;;;;;1.75;1.75;;;;;46.37;13.93;101328.44;5020352;28;45309;-46
2023/07/20 09:50:41;;;;;;;;;2.50;2.50;;;;;46.21;14.21;101328.66;5019075;28;45396;-50
2023/07/20 09:53:07;;;;;;;;;2.00;2.00;;;;;46.22;13.79;101324.72;5020426;28;45459;-50
2023/07/20 09:55:32;;;;;;;;;1.00;1.00;;;;;46.56;13.16;101317.16;5018696;28;46042;-46
2023/07/20 09:57:59;;;;;;;;;3.00;1.50;;;;;46.83;13.20;101312.72;5018847;28;47895;-48
2023/07/20 10:00:24;;;;;;;;;0.50;0.50;;;;;46.93;13.02;101314.50;5019459;28;63811;-47
2023/07/20 10:02:51;;;;;;;;;3.00;1.75;;;;;47.10;13.11;101317.56;5019580;28;62691;-48
2023/07/20 10:05:17;;;;;;;;;2.00;0.50;;;;;47.20;12.57;101308.09;5020031;28;45308;-47
2023/07/20 10:07:50;;;;;;;;;0.75;0.75;;;;;46.69;12.69;101309.88;5018748;28;45234;-47
2023/07/20 10:10:17;;;;;;;;;2.00;2.00;;;;;44.80;14.36;101309.41;5020045;28;45337;-49
2023/07/20 10:12:42;;;;;;;;;1.25;1.25;;;;;42.86;14.95;101313.84;5020156;28;45555;-50
2023/07/20 10:15:20;;;;;;;;;1.25;1.00;;;;;42.88;15.05;101312.44;5019792;28;45454;-47
2023/07/20 10:18:08;;;;;;;;;0.50;0.50;;;;;43.37;14.97;101305.31;5019445;28;45245;-49
2023/07/20 10:20:36;;;;;;;;;0.50;0.50;;;;;44.01;14.33;101299.13;5020011;28;45352;-50
2023/07/20 10:23:02;;;;;;;;;0.50;0.50;;;;;43.99;14.38;101301.38;5018814;28;45392;-48
2023/07/20 10:25:28;;;;;;;;;2.00;2.00;;;;;42.96;15.24;101306.25;5019487;28;45375;-50
2023/07/20 10:27:54;;;;;;;;;0.50;0.50;;;;;41.15;16.03;101298.66;5018690;28;71869;-46
2023/07/20 10:30:20;;;;;;;;;2.00;2.00;;;;;39.83;16.66;101298.06;5018744;28;45407;-46
2023/07/20 10:32:45;;;;;;;;;2.00;1.25;;;;;39.59;17.66;101297.50;5019909;28;45360;-49
2023/07/20 10:35:18;;;;;;;;;3.25;1.75;;;;;39.27;17.17;101296.28;5018445;28;46297;-47
2023/07/20 10:37:51;;;;;;;;;1.75;1.75;;;;;38.99;17.70;101283.34;5019680;28;45311;-46
2023/07/20 10:40:28;;;;;;;;;1.25;0.75;;;;;39.45;17.97;101275.63;5018430;28;45249;-50
2023/07/20 10:43:11;;;;;;;;;1.00;1.00;;;;;40.28;17.18;101279.31;5019699;28;45376;-50
2023/07/20 10:45:40;;;;;;;;;1.00;1.00;;;;;40.64;17.26;101274.91;5019513;28;46881;-47
2023/07/20 10:48:16;;;;;;;;;2.00;2.00;;;;;40.54;16.85;101271.22;5019531;28;45234;-51
2023/07/20 10:50:42;;;;;;;;;4.00;2.25;;;;;40.33;16.49;101263.47;5019896;28;45411;-47
2023/07/20 10:53:16;;;;;;;;;1.00;1.00;;;;;39.87;16.87;101268.63;5019634;28;45254;-47
2023/07/20 10:55:42;;;;;;;;;2.00;2.00;;;;;39.16;17.24;101263.81;5009012;28;45349;-47
2023/07/20 10:58:11;;;;;;;;;3.50;1.00;;;;;38.56;17.56;101269.03;5018271;28;45481;-48
2023/07/20 11:00:38;;;;;;;;;1.00;1.00;;;;;37.88;17.87;101271.72;5019549;28;45369;-48
2023/07/20 11:03:04;;;;;;;;;0.00;0.00;;;;;37.25;18.44;101263.22;5019548;28;45451;-47
2023/07/20 11:05:35;;;;;;;;;2.00;1.00;;;;;36.98;19.04;101265.66;5019124;28;45376;-51
2023/07/20 11:08:00;;;;;;;;;2.00;2.00;;;;;36.56;18.34;101269.38;5019217;28;45466;-48
2023/07/20 11:10:25;;;;;;;;;0.00;0.00;;;;;36.30;19.38;101271.47;5017831;28;45301;-48
2023/07/20 11:13:16;;;;;;;;;2.00;1.00;;;;;36.29;19.51;101255.94;5019503;28;45515;-49
2023/07/20 11:16:00;;;;;;;;;1.00;1.00;;;;;35.84;19.04;101260.00;5019206;28;45443;-47
2023/07/20 11:18:26;;;;;;;;;3.00;1.50;;;;;35.06;19.70;101258.81;5019113;28;45352;-48
2023/07/20 11:20:53;;;;;;;;;2.00;2.00;;;;;34.39;20.57;101260.28;5019344;28;45451;-46